createdAt,value
2022-08-28T00:01:07.649Z,98691.72
2022-08-28T00:03:34.041Z,98684.31
2022-08-28T00:06:00.681Z,98688.84
2022-08-28T00:08:28.296Z,98702.16
2022-08-28T00:10:54.921Z,98702.16
2022-08-28T00:13:21.399Z,98703.13
2022-08-28T00:15:48.185Z,98701.28
2022-08-28T00:18:14.917Z,98707.50
2022-08-28T00:20:41.398Z,98705.81
2022-08-28T00:23:08.218Z,98704.22
2022-08-28T00:25:34.632Z,98690.13
2022-08-28T00:28:01.070Z,98692.72
2022-08-28T00:30:32.371Z,98690.47
2022-08-28T00:32:58.803Z,98674.09
2022-08-28T00:35:25.285Z,98676.09
2022-08-28T00:37:51.937Z,98681.53
2022-08-28T00:40:28.911Z,98685.53
2022-08-28T00:42:59.037Z,98681.16
2022-08-28T00:45:25.427Z,98680.47
2022-08-28T00:47:51.883Z,98682.13
2022-08-28T00:50:18.567Z,98680.78
2022-08-28T00:52:45.020Z,98676.06
2022-08-28T00:55:11.530Z,98684.78
2022-08-28T00:57:38.245Z,98681.78
2022-08-28T01:00:04.678Z,98691.06
2022-08-28T01:02:31.248Z,98687.22
2022-08-28T01:04:57.904Z,98679.63
2022-08-28T01:07:24.491Z,98686.16
2022-08-28T01:09:51.049Z,98678.19
2022-08-28T01:12:18.029Z,98669.78
2022-08-28T01:14:44.511Z,98670.78
2022-08-28T01:17:11.290Z,98673.47
2022-08-28T01:19:38.136Z,98669.06
2022-08-28T01:22:04.623Z,98664.03
2022-08-28T01:24:31.117Z,98653.13
2022-08-28T01:26:57.649Z,98655.47
2022-08-28T01:29:24.484Z,98648.28
2022-08-28T01:31:50.964Z,98652.66
2022-08-28T01:34:17.741Z,98652.03
2022-08-28T01:36:44.315Z,98646.63
2022-08-28T01:39:11.079Z,98647.25
2022-08-28T01:41:37.721Z,98636.22
2022-08-28T01:44:04.310Z,98638.75
2022-08-28T01:46:30.783Z,98628.06
2022-08-28T01:48:57.359Z,98629.84
2022-08-28T01:51:24.702Z,98629.94
2022-08-28T01:53:51.381Z,98631.94
2022-08-28T01:56:18.184Z,98631.16
2022-08-28T01:58:44.593Z,98631.16
2022-08-28T02:01:11.090Z,98628.84
2022-08-28T02:03:37.575Z,98625.88
2022-08-28T02:06:04.026Z,98619.50
2022-08-28T02:08:30.757Z,98624.16
2022-08-28T02:10:57.421Z,98614.44
2022-08-28T02:13:25.670Z,98613.75
2022-08-28T02:15:52.316Z,98616.94
2022-08-28T02:18:19.053Z,98608.41
2022-08-28T02:20:45.470Z,98606.56
2022-08-28T02:23:11.865Z,98604.41
2022-08-28T02:25:38.574Z,98602.72
2022-08-28T02:28:05.095Z,98600.06
2022-08-28T02:30:31.531Z,98602.38
2022-08-28T02:32:57.996Z,98600.53
2022-08-28T02:35:24.451Z,98596.88
2022-08-28T02:37:50.857Z,98593.00
2022-08-28T02:40:21.141Z,98590.31
2022-08-28T02:42:47.622Z,98589.34
2022-08-28T02:45:14.087Z,98595.66
2022-08-28T02:47:40.588Z,98589.97
2022-08-28T02:50:07.015Z,98587.63
2022-08-28T02:52:33.663Z,98587.28
2022-08-28T02:55:00.360Z,98586.94
2022-08-28T02:57:26.857Z,98590.16
2022-08-28T02:59:53.467Z,98588.47
2022-08-28T03:02:20.197Z,98595.50
2022-08-28T03:04:46.748Z,98595.66
2022-08-28T03:07:13.272Z,98595.81
2022-08-28T03:09:40.080Z,98604.53
2022-08-28T03:12:06.483Z,98603.19
2022-08-28T03:14:32.896Z,98604.06
2022-08-28T03:16:59.641Z,98607.00
2022-08-28T03:19:26.134Z,98604.19
2022-08-28T03:21:53.525Z,98612.06
2022-08-28T03:24:20.011Z,98612.44
2022-08-28T03:26:46.443Z,98613.44
2022-08-28T03:29:12.834Z,98610.41
2022-08-28T03:31:39.329Z,98613.09
2022-08-28T03:34:05.745Z,98622.97
2022-08-28T03:36:32.198Z,98614.31
2022-08-28T03:38:58.659Z,98624.22
2022-08-28T03:41:25.561Z,98623.47
2022-08-28T03:43:52.223Z,98622.84
2022-08-28T03:46:19.014Z,98619.16
2022-08-28T03:48:45.458Z,98619.84
2022-08-28T03:51:12.239Z,98629.88
2022-08-28T03:53:38.965Z,98626.84
2022-08-28T03:56:05.403Z,98630.88
2022-08-28T03:58:31.964Z,98632.56
2022-08-28T04:00:59.794Z,98628.03
2022-08-28T04:03:26.320Z,98629.53
2022-08-28T04:05:52.844Z,98632.56
2022-08-28T04:08:19.545Z,98639.75
2022-08-28T04:10:45.947Z,98642.63
2022-08-28T04:13:12.392Z,98643.44
2022-08-28T04:15:39.017Z,98637.75
2022-08-28T04:18:05.548Z,98642.44
2022-08-28T04:20:32.501Z,98650.97
2022-08-28T04:23:00.460Z,98657.19
2022-08-28T04:25:27.102Z,98659.69
2022-08-28T04:27:53.669Z,98664.22
2022-08-28T04:30:20.307Z,98668.59
2022-08-28T04:32:46.720Z,98667.91
2022-08-28T04:35:13.196Z,98677.66
2022-08-28T04:37:39.742Z,98681.69
2022-08-28T04:40:06.284Z,98684.50
2022-08-28T04:42:32.739Z,98684.34
2022-08-28T04:44:59.231Z,98686.19
2022-08-28T04:47:25.632Z,98686.03
2022-08-28T04:49:52.111Z,98688.72
2022-08-28T04:52:19.768Z,98684.69
2022-08-28T04:54:46.194Z,98689.88
2022-08-28T04:57:12.607Z,98678.50
2022-08-28T04:59:39.182Z,98690.56
2022-08-28T05:02:05.631Z,98695.75
2022-08-28T05:04:32.115Z,98691.22
2022-08-28T05:06:59.125Z,98691.41
2022-08-28T05:09:25.576Z,98696.59
2022-08-28T05:11:52.041Z,98701.16
2022-08-28T05:14:18.644Z,98704.50
2022-08-28T05:16:45.170Z,98699.13
2022-08-28T05:19:11.654Z,98699.97
2022-08-28T05:21:38.386Z,98697.59
2022-08-28T05:24:04.828Z,98704.31
2022-08-28T05:26:31.344Z,98706.66
2022-08-28T05:28:57.930Z,98700.91
2022-08-28T05:31:24.599Z,98704.25
2022-08-28T05:33:51.179Z,98701.56
2022-08-28T05:36:18.045Z,98703.59
2022-08-28T05:38:44.493Z,98702.97
2022-08-28T05:41:10.957Z,98699.63
2022-08-28T05:43:37.567Z,98705.66
2022-08-28T05:46:04.175Z,98703.94
2022-08-28T05:48:32.876Z,98697.72
2022-08-28T05:51:03.938Z,98695.88
2022-08-28T05:53:30.975Z,98701.66
2022-08-28T05:55:57.657Z,98708.09
2022-08-28T05:58:24.340Z,98700.06
2022-08-28T06:00:50.753Z,98704.75
2022-08-28T06:03:17.236Z,98708.94
2022-08-28T06:05:43.727Z,98705.47
2022-08-28T06:08:10.493Z,98703.06
2022-08-28T06:10:37.434Z,98712.31
2022-08-28T06:13:05.407Z,98712.47
2022-08-28T06:15:31.801Z,98712.47
2022-08-28T06:17:58.550Z,98719.50
2022-08-28T06:20:25.205Z,98717.16
2022-08-28T06:22:52.119Z,98715.31
2022-08-28T06:25:18.505Z,98717.88
2022-08-28T06:27:44.994Z,98722.41
2022-08-28T06:30:11.385Z,98722.38
2022-08-28T06:32:37.759Z,98717.41
2022-08-28T06:35:04.305Z,98718.94
2022-08-28T06:37:30.855Z,98729.31
2022-08-28T06:39:57.356Z,98730.97
2022-08-28T06:42:23.965Z,98734.34
2022-08-28T06:44:50.409Z,98739.84
2022-08-28T06:47:16.878Z,98737.03
2022-08-28T06:49:43.679Z,98733.00
2022-08-28T06:52:10.206Z,98737.16
2022-08-28T06:54:36.609Z,98736.50
2022-08-28T06:57:04.692Z,98739.22
2022-08-28T06:59:31.112Z,98737.34
2022-08-28T07:01:57.593Z,98739.53
2022-08-28T07:04:24.337Z,98741.88
2022-08-28T07:06:54.114Z,98745.25
2022-08-28T07:09:21.192Z,98745.63
2022-08-28T07:11:47.728Z,98755.53
2022-08-28T07:14:14.162Z,98758.63
2022-08-28T07:16:40.573Z,98751.94
2022-08-28T07:19:07.005Z,98760.00
2022-08-28T07:21:33.407Z,98772.38
2022-08-28T07:24:04.739Z,98769.03
2022-08-28T07:26:31.363Z,98769.19
2022-08-28T07:29:10.861Z,98777.75
2022-08-28T07:31:37.906Z,98776.25
2022-08-28T07:34:04.373Z,98786.78
2022-08-28T07:36:30.857Z,98782.13
2022-08-28T07:38:57.456Z,98790.00
2022-08-28T07:41:23.861Z,98787.16
2022-08-28T07:43:50.256Z,98791.91
2022-08-28T07:46:16.892Z,98797.56
2022-08-28T07:48:43.397Z,98800.75
2022-08-28T07:51:09.853Z,98799.06
2022-08-28T07:53:37.099Z,98796.03
2022-08-28T07:56:03.498Z,98797.00
2022-08-28T07:58:29.970Z,98797.16
2022-08-28T08:00:56.465Z,98797.34
2022-08-28T08:03:22.952Z,98806.22
2022-08-28T08:05:49.369Z,98802.72
2022-08-28T08:08:16.078Z,98812.97
2022-08-28T08:10:42.551Z,98817.19
2022-08-28T08:13:08.961Z,98809.97
2022-08-28T08:15:35.574Z,98816.66
2022-08-28T08:18:02.019Z,98815.72
2022-08-28T08:20:28.429Z,98818.88
2022-08-28T08:22:54.925Z,98820.88
2022-08-28T08:25:21.306Z,98822.28
2022-08-28T08:27:47.702Z,98824.38
2022-08-28T08:30:14.159Z,98828.75
2022-08-28T08:32:40.592Z,98831.47
2022-08-28T08:35:06.991Z,98830.78
2022-08-28T08:37:33.779Z,98835.31
2022-08-28T08:40:00.503Z,98851.25
2022-08-28T08:42:27.067Z,98844.59
2022-08-28T08:44:53.530Z,98848.94
2022-08-28T08:47:19.964Z,98850.09
2022-08-28T08:49:46.437Z,98853.31
2022-08-28T08:52:12.943Z,98859.19
2022-08-28T08:54:39.421Z,98858.50
2022-08-28T08:57:05.855Z,98868.72
2022-08-28T08:59:32.622Z,98869.59
2022-08-28T09:01:59.097Z,98868.75
2022-08-28T09:04:25.557Z,98869.25
2022-08-28T09:06:52.922Z,98866.69
2022-08-28T09:09:19.371Z,98873.78
2022-08-28T09:11:45.768Z,98868.03
2022-08-28T09:14:17.660Z,98872.88
2022-08-28T09:16:47.018Z,98875.06
2022-08-28T09:19:13.512Z,98876.06
2022-08-28T09:21:42.177Z,98874.63
2022-08-28T09:24:10.937Z,98881.66
2022-08-28T09:26:37.582Z,98878.13
2022-08-28T09:29:04.172Z,98876.34
2022-08-28T09:31:30.625Z,98877.06
2022-08-28T09:33:57.138Z,98877.66
2022-08-28T09:36:23.713Z,98877.91
2022-08-28T09:38:50.230Z,98875.13
2022-08-28T09:41:16.839Z,98869.31
2022-08-28T09:43:43.402Z,98882.00
2022-08-28T09:46:09.834Z,98876.31
2022-08-28T09:48:36.303Z,98870.63
2022-08-28T09:51:02.751Z,98863.00
2022-08-28T09:53:29.282Z,98871.03
2022-08-28T09:55:55.692Z,98875.72
2022-08-28T09:58:22.275Z,98869.38
2022-08-28T10:00:48.704Z,98864.53
2022-08-28T10:03:15.080Z,98865.44
2022-08-28T10:05:41.574Z,98858.22
2022-08-28T10:08:08.071Z,98869.97
2022-08-28T10:10:34.722Z,98861.94
2022-08-28T10:13:01.229Z,98854.00
2022-08-28T10:15:27.791Z,98862.38
2022-08-28T10:17:54.210Z,98849.00
2022-08-28T10:20:20.942Z,98854.13
2022-08-28T10:22:47.429Z,98855.25
2022-08-28T10:25:13.841Z,98851.94
2022-08-28T10:27:40.511Z,98848.66
2022-08-28T10:30:11.147Z,98853.56
2022-08-28T10:32:39.711Z,98850.53
2022-08-28T10:35:06.391Z,98849.06
2022-08-28T10:37:32.846Z,98852.22
2022-08-28T10:39:59.425Z,98841.75
2022-08-28T10:42:26.666Z,98840.25
2022-08-28T10:45:02.512Z,98840.88
2022-08-28T10:47:29.032Z,98832.06
2022-08-28T10:49:55.478Z,98838.97
2022-08-28T10:52:21.930Z,98827.88
2022-08-28T10:54:48.470Z,98825.00
2022-08-28T10:57:14.959Z,98824.44
2022-08-28T10:59:42.145Z,98830.09
2022-08-28T11:02:08.934Z,98834.81
2022-08-28T11:04:35.378Z,98841.19
2022-08-28T11:07:02.236Z,98825.59
2022-08-28T11:09:29.062Z,98832.34
2022-08-28T11:11:59.633Z,98840.22
2022-08-28T11:14:28.152Z,98828.03
2022-08-28T11:16:54.864Z,98830.97
2022-08-28T11:19:21.485Z,98840.72
2022-08-28T11:21:48.076Z,98842.72
2022-08-28T11:24:16.832Z,98850.03
2022-08-28T11:26:45.105Z,98839.16
2022-08-28T11:29:11.496Z,98837.88
2022-08-28T11:31:38.478Z,98843.56
2022-08-28T11:34:04.964Z,98843.56
2022-08-28T11:36:33.662Z,98839.16
2022-08-28T11:39:00.130Z,98839.00
2022-08-28T11:41:26.582Z,98844.56
2022-08-28T11:43:53.095Z,98838.25
2022-08-28T11:46:23.816Z,98843.81
2022-08-28T11:48:50.429Z,98849.88
2022-08-28T11:51:16.850Z,98847.38
2022-08-28T11:53:43.415Z,98851.09
2022-08-28T11:56:10.129Z,98855.66
2022-08-28T11:58:36.785Z,98849.59
2022-08-28T12:01:03.305Z,98852.47
2022-08-28T12:03:29.687Z,98847.94
2022-08-28T12:05:56.135Z,98855.53
2022-08-28T12:08:22.716Z,98859.00
2022-08-28T12:10:49.143Z,98852.41
2022-08-28T12:13:15.612Z,98862.34
2022-08-28T12:15:42.508Z,98855.00
2022-08-28T12:18:09.054Z,98860.88
2022-08-28T12:20:35.493Z,98864.28
2022-08-28T12:23:01.921Z,98855.19
2022-08-28T12:25:28.377Z,98862.59
2022-08-28T12:27:54.787Z,98854.53
2022-08-28T12:30:21.335Z,98851.34
2022-08-28T12:32:47.791Z,98852.63
2022-08-28T12:35:16.577Z,98850.94
2022-08-28T12:37:52.636Z,98846.22
2022-08-28T12:40:19.708Z,98843.81
2022-08-28T12:42:46.211Z,98845.28
2022-08-28T12:45:12.637Z,98844.38
2022-08-28T12:47:39.051Z,98840.31
2022-08-28T12:50:05.509Z,98838.97
2022-08-28T12:52:32.065Z,98838.31
2022-08-28T12:54:58.569Z,98840.53
2022-08-28T12:57:25.065Z,98841.81
2022-08-28T12:59:51.925Z,98837.47
2022-08-28T13:02:18.511Z,98828.06
2022-08-28T13:04:45.009Z,98832.09
2022-08-28T13:07:11.488Z,98825.53
2022-08-28T13:09:37.896Z,98826.47
2022-08-28T13:12:06.882Z,98828.09
2022-08-28T13:14:33.777Z,98817.34
2022-08-28T13:17:00.268Z,98831.41
2022-08-28T13:19:26.859Z,98821.56
2022-08-28T13:21:53.322Z,98810.69
2022-08-28T13:24:19.707Z,98810.97
2022-08-28T13:26:46.459Z,98814.50
2022-08-28T13:29:12.893Z,98822.09
2022-08-28T13:31:39.304Z,98824.56
2022-08-28T13:34:05.691Z,98820.38
2022-08-28T13:36:32.136Z,98823.09
2022-08-28T13:38:58.743Z,98818.81
2022-08-28T13:41:25.242Z,98815.50
2022-08-28T13:43:51.747Z,98818.66
2022-08-28T13:46:18.589Z,98812.94
2022-08-28T13:48:45.104Z,98823.75
2022-08-28T13:51:19.302Z,98824.44
2022-08-28T13:53:47.874Z,98827.94
2022-08-28T13:56:14.408Z,98834.66
2022-08-28T13:58:40.880Z,98829.94
2022-08-28T14:01:07.576Z,98834.41
2022-08-28T14:03:34.173Z,98841.88
2022-08-28T14:06:00.675Z,98838.19
2022-08-28T14:08:27.415Z,98838.47
2022-08-28T14:10:54.028Z,98836.84
2022-08-28T14:13:20.612Z,98834.66
2022-08-28T14:15:47.242Z,98833.31
2022-08-28T14:18:13.696Z,98823.94
2022-08-28T14:20:40.124Z,98825.41
2022-08-28T14:23:06.608Z,98824.88
2022-08-28T14:25:38.486Z,98828.44
2022-08-28T14:28:05.747Z,98819.88
2022-08-28T14:30:32.476Z,98817.16
2022-08-28T14:32:58.900Z,98825.25
2022-08-28T14:35:25.430Z,98822.59
2022-08-28T14:37:52.096Z,98821.75
2022-08-28T14:40:18.668Z,98827.19
2022-08-28T14:42:45.366Z,98830.81
2022-08-28T14:45:12.011Z,98832.63
2022-08-28T14:47:38.434Z,98833.47
2022-08-28T14:50:04.902Z,98834.50
2022-08-28T14:52:31.460Z,98834.00
2022-08-28T14:54:57.854Z,98844.22
2022-08-28T14:57:24.285Z,98842.00
2022-08-28T14:59:50.844Z,98841.53
2022-08-28T15:02:17.243Z,98844.91
2022-08-28T15:04:43.621Z,98835.34
2022-08-28T15:07:10.296Z,98840.47
2022-08-28T15:09:36.971Z,98843.56
2022-08-28T15:12:03.784Z,98842.03
2022-08-28T15:14:30.523Z,98836.53
2022-08-28T15:16:57.050Z,98835.63
2022-08-28T15:19:23.560Z,98829.88
2022-08-28T15:21:50.217Z,98840.56
2022-08-28T15:24:16.840Z,98839.34
2022-08-28T15:26:43.350Z,98827.56
2022-08-28T15:29:10.023Z,98835.44
2022-08-28T15:31:36.590Z,98834.63
2022-08-28T15:34:03.049Z,98845.78
2022-08-28T15:36:29.731Z,98844.97
2022-08-28T15:38:56.628Z,98848.25
2022-08-28T15:41:24.611Z,98848.97
2022-08-28T15:43:51.793Z,98846.84
2022-08-28T15:46:18.275Z,98846.31
2022-08-28T15:48:45.084Z,98855.28
2022-08-28T15:51:13.745Z,98865.59
2022-08-28T15:53:40.547Z,98851.72
2022-08-28T15:56:07.068Z,98848.38
2022-08-28T15:58:33.643Z,98853.09
2022-08-28T16:01:00.206Z,98857.13
2022-08-28T16:03:26.685Z,98856.19
2022-08-28T16:05:53.123Z,98859.63
2022-08-28T16:08:19.625Z,98857.22
2022-08-28T16:10:46.208Z,98859.56
2022-08-28T16:13:12.927Z,98870.66
2022-08-28T16:15:39.547Z,98888.09
2022-08-28T16:18:05.974Z,98872.72
2022-08-28T16:20:32.604Z,98883.88
2022-08-28T16:22:59.183Z,98874.91
2022-08-28T16:25:25.603Z,98875.00
2022-08-28T16:27:52.159Z,98884.91
2022-08-28T16:30:18.561Z,98891.75
2022-08-28T16:32:46.725Z,98884.19
2022-08-28T16:35:13.607Z,98885.25
2022-08-28T16:37:40.349Z,98881.19
2022-08-28T16:40:06.830Z,98881.09
2022-08-28T16:42:33.463Z,98873.03
2022-08-28T16:44:59.907Z,98876.69
2022-08-28T16:47:26.518Z,98880.16
2022-08-28T16:49:53.152Z,98873.47
2022-08-28T16:52:19.607Z,98870.94
2022-08-28T16:54:46.108Z,98876.06
2022-08-28T16:57:15.389Z,98884.53
2022-08-28T16:59:41.848Z,98881.25
2022-08-28T17:02:08.414Z,98883.66
2022-08-28T17:04:39.871Z,98891.03
2022-08-28T17:07:06.653Z,98898.63
2022-08-28T17:09:33.159Z,98895.44
2022-08-28T17:11:59.686Z,98900.47
2022-08-28T17:14:26.157Z,98904.63
2022-08-28T17:16:52.533Z,98916.41
2022-08-28T17:19:19.200Z,98917.13
2022-08-28T17:21:45.841Z,98915.25
2022-08-28T17:24:12.269Z,98911.84
2022-08-28T17:26:39.271Z,98923.50
2022-08-28T17:29:05.777Z,98919.47
2022-08-28T17:31:32.413Z,98918.91
2022-08-28T17:33:59.008Z,98918.06
2022-08-28T17:36:33.495Z,98921.94
2022-08-28T17:39:01.238Z,98930.19
2022-08-28T17:41:27.899Z,98924.13
2022-08-28T17:43:54.417Z,98936.75
2022-08-28T17:46:21.216Z,98932.72
2022-08-28T17:48:54.370Z,98937.41
2022-08-28T17:51:23.412Z,98938.25
2022-08-28T17:54:03.435Z,98943.50
2022-08-28T17:56:33.304Z,98947.97
2022-08-28T17:59:02.997Z,98954.63
2022-08-28T18:01:29.880Z,98956.03
2022-08-28T18:03:56.807Z,98956.03
2022-08-28T18:06:23.598Z,98964.97
2022-08-28T18:08:50.643Z,98961.72
2022-08-28T18:11:18.077Z,98960.06
2022-08-28T18:13:44.931Z,98966.97
2022-08-28T18:16:11.536Z,98970.50
2022-08-28T18:18:38.438Z,98969.47
2022-08-28T18:21:04.946Z,98975.53
2022-08-28T18:23:31.680Z,98980.25
2022-08-28T18:25:58.697Z,98980.84
2022-08-28T18:28:25.562Z,98980.56
2022-08-28T18:30:52.415Z,98980.28
2022-08-28T18:33:19.575Z,98980.44
2022-08-28T18:35:49.245Z,98987.63
2022-08-28T18:38:16.048Z,98995.31
2022-08-28T18:40:42.821Z,99001.03
2022-08-28T18:43:09.630Z,99003.06
2022-08-28T18:45:36.456Z,99008.63
2022-08-28T18:48:03.263Z,99002.72
2022-08-28T18:50:30.069Z,99006.44
2022-08-28T18:52:56.904Z,99013.47
2022-08-28T18:55:23.835Z,99015.50
2022-08-28T18:57:51.616Z,99016.88
2022-08-28T19:00:21.614Z,99024.13
2022-08-28T19:02:48.679Z,99021.59
2022-08-28T19:05:15.675Z,99022.78
2022-08-28T19:07:42.520Z,99028.81
2022-08-28T19:10:28.057Z,99035.72
2022-08-28T19:12:57.602Z,99037.03
2022-08-28T19:15:24.747Z,99036.03
2022-08-28T19:17:51.650Z,99032.34
2022-08-28T19:20:18.456Z,99033.50
2022-08-28T19:22:45.274Z,99045.44
2022-08-28T19:25:27.498Z,99040.06
2022-08-28T19:27:59.199Z,99033.34
2022-08-28T19:30:25.896Z,99033.66
2022-08-28T19:32:52.704Z,99041.25
2022-08-28T19:35:19.749Z,99041.06
2022-08-28T19:37:46.610Z,99040.56
2022-08-28T19:40:13.647Z,99040.16
2022-08-28T19:42:40.721Z,99044.69
2022-08-28T19:45:07.626Z,99049.88
2022-08-28T19:47:35.854Z,99045.47
2022-08-28T19:50:05.411Z,99046.97
2022-08-28T19:52:32.226Z,99050.16
2022-08-28T19:55:02.559Z,99052.66
2022-08-28T19:57:30.375Z,99064.00
2022-08-28T19:59:57.393Z,99057.88
2022-08-28T20:02:25.383Z,99063.31
2022-08-28T20:04:52.403Z,99064.09
2022-08-28T20:07:19.497Z,99071.59
2022-08-28T20:09:46.512Z,99090.66
2022-08-28T20:12:13.818Z,99085.75
2022-08-28T20:14:40.970Z,99081.31
2022-08-28T20:17:08.462Z,99086.75
2022-08-28T20:19:35.387Z,99090.28
2022-08-28T20:22:02.277Z,99097.81
2022-08-28T20:24:30.026Z,99096.94
2022-08-28T20:26:56.645Z,99094.84
2022-08-28T20:29:23.337Z,99104.66
2022-08-28T20:31:50.998Z,99111.13
2022-08-28T20:34:17.565Z,99112.09
2022-08-28T20:36:44.017Z,99107.41
2022-08-28T20:39:12.747Z,99105.09
2022-08-28T20:41:39.365Z,99110.53
2022-08-28T20:44:06.123Z,99106.22
2022-08-28T20:46:35.057Z,99106.53
2022-08-28T20:49:05.834Z,99104.69
2022-08-28T20:51:32.268Z,99109.88
2022-08-28T20:53:58.809Z,99109.47
2022-08-28T20:56:25.528Z,99103.13
2022-08-28T20:58:52.140Z,99106.66
2022-08-28T21:01:20.125Z,99115.56
2022-08-28T21:03:48.139Z,99112.94
2022-08-28T21:06:14.717Z,99119.19
2022-08-28T21:08:41.660Z,99107.59
2022-08-28T21:11:08.548Z,99118.63
2022-08-28T21:13:35.288Z,99118.19
2022-08-28T21:16:03.175Z,99120.34
2022-08-28T21:18:31.009Z,99119.06
2022-08-28T21:20:57.411Z,99117.09
2022-08-28T21:23:24.314Z,99112.09
2022-08-28T21:25:50.758Z,99107.88
2022-08-28T21:28:18.229Z,99111.38
2022-08-28T21:30:45.009Z,99114.22
2022-08-28T21:33:11.561Z,99109.19
2022-08-28T21:35:38.036Z,99103.97
2022-08-28T21:38:04.502Z,99119.13
2022-08-28T21:40:31.160Z,99108.25
2022-08-28T21:42:57.672Z,99111.75
2022-08-28T21:45:24.218Z,99119.59
2022-08-28T21:47:51.024Z,99116.47
2022-08-28T21:50:17.449Z,99127.84
2022-08-28T21:52:44.142Z,99122.50
2022-08-28T21:55:10.687Z,99126.56
2022-08-28T21:57:39.441Z,99116.94
2022-08-28T22:00:07.059Z,99123.78
2022-08-28T22:02:33.620Z,99118.06
2022-08-28T22:05:00.209Z,99113.34
2022-08-28T22:07:27.143Z,99118.44
2022-08-28T22:09:54.283Z,99116.91
2022-08-28T22:12:20.843Z,99113.41
2022-08-28T22:14:47.545Z,99115.13
2022-08-28T22:17:14.401Z,99111.09
2022-08-28T22:19:46.510Z,99111.41
2022-08-28T22:22:13.530Z,99104.66
2022-08-28T22:24:41.124Z,99106.91
2022-08-28T22:27:07.591Z,99116.19
2022-08-28T22:29:34.060Z,99122.13
2022-08-28T22:32:03.575Z,99129.31
2022-08-28T22:34:30.160Z,99131.66
2022-08-28T22:36:59.874Z,99135.63
2022-08-28T22:39:26.605Z,99126.38
2022-08-28T22:41:54.270Z,99128.22
2022-08-28T22:44:20.743Z,99119.34
2022-08-28T22:46:47.386Z,99126.03
2022-08-28T22:49:13.965Z,99128.84
2022-08-28T22:51:40.502Z,99120.00
2022-08-28T22:54:07.408Z,99120.94
2022-08-28T22:56:33.943Z,99127.31
2022-08-28T22:59:00.400Z,99122.25
2022-08-28T23:01:26.978Z,99121.06
2022-08-28T23:03:53.755Z,99124.38
2022-08-28T23:06:20.262Z,99122.06
2022-08-28T23:08:47.221Z,99119.16
2022-08-28T23:11:13.825Z,99124.78
2022-08-28T23:13:42.633Z,99117.84
2022-08-28T23:16:09.559Z,99117.78
2022-08-28T23:19:06.540Z,99112.16
2022-08-28T23:21:22.932Z,99117.91
2022-08-28T23:23:49.359Z,99120.56
2022-08-28T23:26:15.804Z,99108.91
2022-08-28T23:28:45.511Z,99117.97
2022-08-28T23:31:11.984Z,99122.72
2022-08-28T23:33:38.734Z,99119.47
2022-08-28T23:36:05.269Z,99109.97
2022-08-28T23:38:31.917Z,99116.09
2022-08-28T23:40:58.505Z,99122.25
2022-08-28T23:43:25.317Z,99122.81
2022-08-28T23:45:51.884Z,99126.06
2022-08-28T23:48:18.355Z,99125.09
2022-08-28T23:50:45.078Z,99122.41
2022-08-28T23:53:11.628Z,99124.78
2022-08-28T23:55:38.123Z,99114.94
2022-08-28T23:58:04.919Z,99127.47
